sensor_id;sensor_type;location;lat;lon;timestamp;pressure;altitude;pressure_sealevel;temperature;humidity
64158;BME280;50449;51.528;5.076;2022-10-16T00:01:13;100889.50;;;15.64;64.71
64158;BME280;50449;51.528;5.076;2022-10-16T00:03:39;100882.44;;;15.63;64.33
64158;BME280;50449;51.528;5.076;2022-10-16T00:06:06;100885.16;;;15.63;64.51
64158;BME280;50449;51.528;5.076;2022-10-16T00:08:32;100887.88;;;15.63;64.50
64158;BME280;50449;51.528;5.076;2022-10-16T00:11:08;100885.44;;;15.61;64.72
64158;BME280;50449;51.528;5.076;2022-10-16T00:13:35;100883.81;;;15.60;64.47
64158;BME280;50449;51.528;5.076;2022-10-16T00:16:03;100881.34;;;15.58;64.33
64158;BME280;50449;51.528;5.076;2022-10-16T00:18:29;100885.97;;;15.58;64.65
64158;BME280;50449;51.528;5.076;2022-10-16T00:20:55;100886.25;;;15.56;64.50
64158;BME280;50449;51.528;5.076;2022-10-16T00:23:21;100888.97;;;15.56;64.84
64158;BME280;50449;51.528;5.076;2022-10-16T00:26:01;100892.78;;;15.55;64.80
64158;BME280;50449;51.528;5.076;2022-10-16T00:28:27;100885.69;;;15.54;64.61
64158;BME280;50449;51.528;5.076;2022-10-16T00:30:53;100889.50;;;15.53;64.78
64158;BME280;50449;51.528;5.076;2022-10-16T00:33:19;100884.88;;;15.54;64.75
64158;BME280;50449;51.528;5.076;2022-10-16T00:35:44;100884.88;;;15.54;64.50
64158;BME280;50449;51.528;5.076;2022-10-16T00:38:10;100883.25;;;15.53;64.51
64158;BME280;50449;51.528;5.076;2022-10-16T00:40:35;100882.44;;;15.52;64.44
64158;BME280;50449;51.528;5.076;2022-10-16T00:43:01;100883.53;;;15.51;64.37
64158;BME280;50449;51.528;5.076;2022-10-16T00:45:26;100882.16;;;15.49;64.71
64158;BME280;50449;51.528;5.076;2022-10-16T00:47:53;100890.31;;;15.49;64.83
64158;BME280;50449;51.528;5.076;2022-10-16T00:50:27;100886.78;;;15.48;64.39
64158;BME280;50449;51.528;5.076;2022-10-16T00:52:53;100877.00;;;15.47;64.66
64158;BME280;50449;51.528;5.076;2022-10-16T00:55:20;100879.72;;;15.47;64.50
64158;BME280;50449;51.528;5.076;2022-10-16T00:57:46;100884.63;;;15.45;64.94
64158;BME280;50449;51.528;5.076;2022-10-16T01:00:16;100887.34;;;15.45;64.79
64158;BME280;50449;51.528;5.076;2022-10-16T01:02:41;100893.03;;;15.44;64.52
64158;BME280;50449;51.528;5.076;2022-10-16T01:05:07;100891.44;;;15.43;64.82
64158;BME280;50449;51.528;5.076;2022-10-16T01:07:39;100889.78;;;15.42;64.66
64158;BME280;50449;51.528;5.076;2022-10-16T01:10:27;100891.69;;;15.41;64.92
64158;BME280;50449;51.528;5.076;2022-10-16T01:13:06;100890.06;;;15.40;64.58
64158;BME280;50449;51.528;5.076;2022-10-16T01:15:42;100884.06;;;15.38;64.57
64158;BME280;50449;51.528;5.076;2022-10-16T01:18:15;100879.69;;;15.37;64.65
64158;BME280;50449;51.528;5.076;2022-10-16T01:20:58;100889.78;;;15.36;64.67
64158;BME280;50449;51.528;5.076;2022-10-16T01:31:17;100875.91;;;15.33;64.98
64158;BME280;50449;51.528;5.076;2022-10-16T01:33:46;100882.16;;;15.33;65.13
64158;BME280;50449;51.528;5.076;2022-10-16T01:36:15;100894.41;;;15.31;64.75
64158;BME280;50449;51.528;5.076;2022-10-16T01:38:44;100906.09;;;15.31;64.79
64158;BME280;50449;51.528;5.076;2022-10-16T01:41:21;100889.75;;;15.31;64.92
64158;BME280;50449;51.528;5.076;2022-10-16T01:46:23;100873.72;;;15.30;64.96
64158;BME280;50449;51.528;5.076;2022-10-16T01:48:50;100874.78;;;15.29;64.99
64158;BME280;50449;51.528;5.076;2022-10-16T01:51:18;100868.53;;;15.28;64.58
64158;BME280;50449;51.528;5.076;2022-10-16T01:53:48;100880.53;;;15.27;65.02
64158;BME280;50449;51.528;5.076;2022-10-16T01:56:17;100882.41;;;15.27;64.66
64158;BME280;50449;51.528;5.076;2022-10-16T01:58:49;100878.06;;;15.26;64.75
64158;BME280;50449;51.528;5.076;2022-10-16T02:01:18;100884.31;;;15.26;64.69
64158;BME280;50449;51.528;5.076;2022-10-16T02:03:46;100884.59;;;15.25;64.85
64158;BME280;50449;51.528;5.076;2022-10-16T02:06:13;100890.06;;;15.25;64.86
64158;BME280;50449;51.528;5.076;2022-10-16T02:08:39;100891.13;;;15.24;64.99
64158;BME280;50449;51.528;5.076;2022-10-16T02:11:05;100900.94;;;15.25;65.03
64158;BME280;50449;51.528;5.076;2022-10-16T02:13:41;100890.31;;;15.23;65.24
64158;BME280;50449;51.528;5.076;2022-10-16T02:16:11;100896.84;;;15.22;65.17
64158;BME280;50449;51.528;5.076;2022-10-16T02:18:38;100885.13;;;15.22;65.09
64158;BME280;50449;51.528;5.076;2022-10-16T02:21:21;100885.13;;;15.22;65.06
64158;BME280;50449;51.528;5.076;2022-10-16T02:24:09;100896.00;;;15.22;64.81
64158;BME280;50449;51.528;5.076;2022-10-16T02:26:42;100892.75;;;15.20;64.90
64158;BME280;50449;51.528;5.076;2022-10-16T02:29:12;100898.22;;;15.20;64.93
64158;BME280;50449;51.528;5.076;2022-10-16T02:31:40;100895.75;;;15.18;64.88
64158;BME280;50449;51.528;5.076;2022-10-16T02:34:08;100894.38;;;15.15;65.02
64158;BME280;50449;51.528;5.076;2022-10-16T02:36:37;100905.25;;;15.15;64.79
64158;BME280;50449;51.528;5.076;2022-10-16T02:39:04;100902.53;;;15.15;64.77
64158;BME280;50449;51.528;5.076;2022-10-16T02:41:30;100891.66;;;15.15;64.87
64158;BME280;50449;51.528;5.076;2022-10-16T02:43:55;100882.69;;;15.15;65.10
64158;BME280;50449;51.528;5.076;2022-10-16T02:46:21;100882.69;;;15.15;65.13
64158;BME280;50449;51.528;5.076;2022-10-16T02:48:46;100884.59;;;15.14;64.84
64158;BME280;50449;51.528;5.076;2022-10-16T02:51:12;100883.75;;;15.14;64.73
64158;BME280;50449;51.528;5.076;2022-10-16T02:53:37;100877.50;;;15.13;65.21
64158;BME280;50449;51.528;5.076;2022-10-16T02:56:03;100892.19;;;15.12;65.34
64158;BME280;50449;51.528;5.076;2022-10-16T02:58:28;100885.94;;;15.12;65.20
64158;BME280;50449;51.528;5.076;2022-10-16T03:00:55;100884.28;;;15.11;64.90
64158;BME280;50449;51.528;5.076;2022-10-16T03:03:20;100886.22;;;15.10;65.10
64158;BME280;50449;51.528;5.076;2022-10-16T03:05:46;100888.94;;;15.10;64.99
64158;BME280;50449;51.528;5.076;2022-10-16T03:08:12;100885.41;;;15.10;64.90
64158;BME280;50449;51.528;5.076;2022-10-16T03:10:37;100884.59;;;15.09;65.26
64158;BME280;50449;51.528;5.076;2022-10-16T03:13:02;100884.59;;;15.09;64.90
64158;BME280;50449;51.528;5.076;2022-10-16T03:15:28;100906.59;;;15.08;65.12
64158;BME280;50449;51.528;5.076;2022-10-16T03:17:54;100913.97;;;15.07;65.16
64158;BME280;50449;51.528;5.076;2022-10-16T03:20:20;100912.31;;;15.06;65.12
64158;BME280;50449;51.528;5.076;2022-10-16T03:22:45;100914.22;;;15.06;64.92
64158;BME280;50449;51.528;5.076;2022-10-16T03:25:10;100925.91;;;15.06;65.17
64158;BME280;50449;51.528;5.076;2022-10-16T03:27:36;100924.28;;;15.05;65.31
64158;BME280;50449;51.528;5.076;2022-10-16T03:30:02;100917.19;;;15.04;65.31
64158;BME280;50449;51.528;5.076;2022-10-16T03:32:27;100922.63;;;15.04;65.09
64158;BME280;50449;51.528;5.076;2022-10-16T03:34:53;100915.56;;;15.03;64.76
64158;BME280;50449;51.528;5.076;2022-10-16T03:37:19;100908.50;;;15.02;65.16
64158;BME280;50449;51.528;5.076;2022-10-16T03:39:45;100924.81;;;15.02;65.36
64158;BME280;50449;51.528;5.076;2022-10-16T03:42:10;100928.63;;;15.01;64.88
64158;BME280;50449;51.528;5.076;2022-10-16T03:44:36;100936.78;;;15.01;64.97
64158;BME280;50449;51.528;5.076;2022-10-16T03:47:01;100928.91;;;15.00;65.34
64158;BME280;50449;51.528;5.076;2022-10-16T03:49:27;100932.69;;;14.99;65.09
64158;BME280;50449;51.528;5.076;2022-10-16T03:51:52;100931.63;;;15.00;65.19
64158;BME280;50449;51.528;5.076;2022-10-16T03:54:17;100930.78;;;14.99;64.95
64158;BME280;50449;51.528;5.076;2022-10-16T03:56:43;100939.22;;;14.98;65.30
64158;BME280;50449;51.528;5.076;2022-10-16T03:59:08;100947.38;;;14.98;65.23
64158;BME280;50449;51.528;5.076;2022-10-16T04:01:33;100935.69;;;14.97;65.30
64158;BME280;50449;51.528;5.076;2022-10-16T04:03:59;100941.38;;;14.96;65.24
64158;BME280;50449;51.528;5.076;2022-10-16T04:06:24;100941.38;;;14.96;65.39
64158;BME280;50449;51.528;5.076;2022-10-16T04:08:49;100940.56;;;14.95;64.99
64158;BME280;50449;51.528;5.076;2022-10-16T04:11:15;100938.94;;;14.94;65.12
64158;BME280;50449;51.528;5.076;2022-10-16T04:13:40;100945.22;;;14.95;65.27
64158;BME280;50449;51.528;5.076;2022-10-16T04:16:06;100962.34;;;14.95;65.18
64158;BME280;50449;51.528;5.076;2022-10-16T04:18:32;100952.00;;;14.92;64.98
64158;BME280;50449;51.528;5.076;2022-10-16T04:21:02;100952.00;;;14.92;65.02
64158;BME280;50449;51.528;5.076;2022-10-16T04:23:28;100947.38;;;14.92;65.42
64158;BME280;50449;51.528;5.076;2022-10-16T04:25:53;100947.38;;;14.92;64.89
64158;BME280;50449;51.528;5.076;2022-10-16T04:28:18;100942.19;;;14.91;65.30
64158;BME280;50449;51.528;5.076;2022-10-16T04:30:44;100941.38;;;14.90;65.20
64158;BME280;50449;51.528;5.076;2022-10-16T04:33:09;100956.06;;;14.89;65.32
64158;BME280;50449;51.528;5.076;2022-10-16T04:35:35;100968.56;;;14.90;65.02
64158;BME280;50449;51.528;5.076;2022-10-16T04:38:00;100968.00;;;14.88;65.19
64158;BME280;50449;51.528;5.076;2022-10-16T04:40:25;100975.38;;;14.88;65.06
64158;BME280;50449;51.528;5.076;2022-10-16T04:42:51;100986.00;;;14.89;65.07
64158;BME280;50449;51.528;5.076;2022-10-16T04:45:16;101001.75;;;14.87;64.95
64158;BME280;50449;51.528;5.076;2022-10-16T04:47:42;100991.13;;;14.86;65.26
64158;BME280;50449;51.528;5.076;2022-10-16T04:50:07;100994.66;;;14.86;65.15
64158;BME280;50449;51.528;5.076;2022-10-16T04:52:33;101002.00;;;14.86;65.33
64158;BME280;50449;51.528;5.076;2022-10-16T04:54:58;101002.28;;;14.84;65.23
64158;BME280;50449;51.528;5.076;2022-10-16T04:57:27;100996.84;;;14.84;65.41
64158;BME280;50449;51.528;5.076;2022-10-16T04:59:53;101002.28;;;14.84;65.23
64158;BME280;50449;51.528;5.076;2022-10-16T05:02:18;100998.72;;;14.84;65.17
64158;BME280;50449;51.528;5.076;2022-10-16T05:04:43;100995.19;;;14.83;65.12
64158;BME280;50449;51.528;5.076;2022-10-16T05:07:09;100998.19;;;14.82;65.39
64158;BME280;50449;51.528;5.076;2022-10-16T05:09:34;101001.97;;;14.81;65.03
64158;BME280;50449;51.528;5.076;2022-10-16T05:12:00;101008.22;;;14.81;65.30
64158;BME280;50449;51.528;5.076;2022-10-16T05:14:25;101001.16;;;14.80;65.10
64158;BME280;50449;51.528;5.076;2022-10-16T05:16:50;101011.22;;;14.80;65.13
64158;BME280;50449;51.528;5.076;2022-10-16T05:19:16;101012.28;;;14.79;65.27
64158;BME280;50449;51.528;5.076;2022-10-16T05:21:42;101016.09;;;14.78;65.38
64158;BME280;50449;51.528;5.076;2022-10-16T05:24:07;101016.91;;;14.78;65.13
64158;BME280;50449;51.528;5.076;2022-10-16T05:26:32;101020.72;;;14.77;65.17
64158;BME280;50449;51.528;5.076;2022-10-16T05:28:58;101022.66;;;14.77;65.16
64158;BME280;50449;51.528;5.076;2022-10-16T05:31:23;101024.53;;;14.76;65.11
64158;BME280;50449;51.528;5.076;2022-10-16T05:33:48;101034.59;;;14.76;65.49
64158;BME280;50449;51.528;5.076;2022-10-16T05:36:14;101034.59;;;14.76;65.28
64158;BME280;50449;51.528;5.076;2022-10-16T05:38:39;101041.94;;;14.75;65.08
64158;BME280;50449;51.528;5.076;2022-10-16T05:41:05;101043.03;;;14.74;65.16
64158;BME280;50449;51.528;5.076;2022-10-16T05:43:31;101057.44;;;14.75;64.96
64158;BME280;50449;51.528;5.076;2022-10-16T05:46:05;101064.78;;;14.74;65.33
64158;BME280;50449;51.528;5.076;2022-10-16T05:48:31;101068.56;;;14.73;65.37
64158;BME280;50449;51.528;5.076;2022-10-16T05:51:03;101070.47;;;14.73;65.23
64158;BME280;50449;51.528;5.076;2022-10-16T05:53:30;101077.81;;;14.72;65.32
64158;BME280;50449;51.528;5.076;2022-10-16T05:55:56;101078.88;;;14.71;65.31
64158;BME280;50449;51.528;5.076;2022-10-16T05:58:23;101081.59;;;14.71;65.39
64158;BME280;50449;51.528;5.076;2022-10-16T06:00:55;101088.13;;;14.70;65.26
64158;BME280;50449;51.528;5.076;2022-10-16T06:03:21;101090.03;;;14.69;65.20
64158;BME280;50449;51.528;5.076;2022-10-16T06:05:46;101092.75;;;14.69;65.28
64158;BME280;50449;51.528;5.076;2022-10-16T06:08:11;101097.34;;;14.69;65.19
64158;BME280;50449;51.528;5.076;2022-10-16T06:10:37;101097.34;;;14.69;65.45
64158;BME280;50449;51.528;5.076;2022-10-16T06:13:02;101098.69;;;14.66;65.56
64158;BME280;50449;51.528;5.076;2022-10-16T06:15:27;101107.69;;;14.67;65.59
64158;BME280;50449;51.528;5.076;2022-10-16T06:17:53;101107.94;;;14.65;65.41
64158;BME280;50449;51.528;5.076;2022-10-16T06:20:18;101118.81;;;14.65;65.23
64158;BME280;50449;51.528;5.076;2022-10-16T06:22:43;101120.72;;;14.65;65.32
64158;BME280;50449;51.528;5.076;2022-10-16T06:25:09;101123.44;;;14.65;65.33
64158;BME280;50449;51.528;5.076;2022-10-16T06:27:34;101122.88;;;14.63;65.49
64158;BME280;50449;51.528;5.076;2022-10-16T06:29:59;101137.28;;;14.63;65.39
64158;BME280;50449;51.528;5.076;2022-10-16T06:32:25;101133.19;;;14.61;65.38
64158;BME280;50449;51.528;5.076;2022-10-16T06:34:50;101136.72;;;14.61;65.46
64158;BME280;50449;51.528;5.076;2022-10-16T06:37:15;101135.91;;;14.61;65.64
64158;BME280;50449;51.528;5.076;2022-10-16T06:39:41;101128.03;;;14.59;65.36
64158;BME280;50449;51.528;5.076;2022-10-16T06:42:06;101131.56;;;14.60;65.59
64158;BME280;50449;51.528;5.076;2022-10-16T06:44:31;101138.91;;;14.59;65.44
64158;BME280;50449;51.528;5.076;2022-10-16T06:46:57;101136.44;;;14.58;65.39
64158;BME280;50449;51.528;5.076;2022-10-16T06:49:22;101146.47;;;14.57;65.61
64158;BME280;50449;51.528;5.076;2022-10-16T06:51:48;101148.38;;;14.57;65.60
64158;BME280;50449;51.528;5.076;2022-10-16T06:54:14;101163.59;;;14.58;65.54
64158;BME280;50449;51.528;5.076;2022-10-16T06:56:40;101168.22;;;14.57;65.44
64158;BME280;50449;51.528;5.076;2022-10-16T06:59:05;101161.13;;;14.56;65.32
64158;BME280;50449;51.528;5.076;2022-10-16T07:01:31;101173.91;;;14.56;65.36
64158;BME280;50449;51.528;5.076;2022-10-16T07:03:57;101186.69;;;14.55;65.61
64158;BME280;50449;51.528;5.076;2022-10-16T07:06:24;101177.72;;;14.55;65.70
64158;BME280;50449;51.528;5.076;2022-10-16T07:08:50;101187.78;;;14.54;65.24
64158;BME280;50449;51.528;5.076;2022-10-16T07:11:21;101189.66;;;14.54;65.60
64158;BME280;50449;51.528;5.076;2022-10-16T07:13:47;101195.94;;;14.54;65.47
64158;BME280;50449;51.528;5.076;2022-10-16T07:16:15;101206.81;;;14.54;65.59
64158;BME280;50449;51.528;5.076;2022-10-16T07:18:41;101208.69;;;14.54;65.64
64158;BME280;50449;51.528;5.076;2022-10-16T07:21:16;101217.69;;;14.54;65.63
64158;BME280;50449;51.528;5.076;2022-10-16T07:23:42;101214.38;;;14.52;65.48
64158;BME280;50449;51.528;5.076;2022-10-16T07:26:08;101212.47;;;14.53;65.50
64158;BME280;50449;51.528;5.076;2022-10-16T07:28:35;101220.63;;;14.53;65.72
64158;BME280;50449;51.528;5.076;2022-10-16T07:31:02;101224.19;;;14.53;66.02
64158;BME280;50449;51.528;5.076;2022-10-16T07:33:28;101232.34;;;14.53;65.75
64158;BME280;50449;51.528;5.076;2022-10-16T07:35:54;101231.50;;;14.53;65.85
64158;BME280;50449;51.528;5.076;2022-10-16T07:38:21;101231.28;;;14.54;65.77
64158;BME280;50449;51.528;5.076;2022-10-16T07:40:46;101226.91;;;14.53;65.83
64158;BME280;50449;51.528;5.076;2022-10-16T07:43:13;101235.88;;;14.54;65.92
64158;BME280;50449;51.528;5.076;2022-10-16T07:45:46;101235.06;;;14.53;65.72
64158;BME280;50449;51.528;5.076;2022-10-16T07:48:12;101236.94;;;14.53;66.16
64158;BME280;50449;51.528;5.076;2022-10-16T07:50:37;101248.66;;;14.53;65.59
64158;BME280;50449;51.528;5.076;2022-10-16T07:53:04;101249.47;;;14.54;65.87
64158;BME280;50449;51.528;5.076;2022-10-16T07:55:29;101262.00;;;14.55;66.04
64158;BME280;50449;51.528;5.076;2022-10-16T07:57:54;101262.81;;;14.55;66.04
64158;BME280;50449;51.528;5.076;2022-10-16T08:00:20;101263.91;;;14.54;65.87
64158;BME280;50449;51.528;5.076;2022-10-16T08:02:45;101263.91;;;14.54;65.94
64158;BME280;50449;51.528;5.076;2022-10-16T08:05:10;101268.25;;;14.55;65.98
64158;BME280;50449;51.528;5.076;2022-10-16T08:07:36;101286.47;;;14.55;65.88
64158;BME280;50449;51.528;5.076;2022-10-16T08:10:02;101289.19;;;14.55;65.84
64158;BME280;50449;51.528;5.076;2022-10-16T08:12:28;101301.69;;;14.56;65.91
64158;BME280;50449;51.528;5.076;2022-10-16T08:14:53;101302.50;;;14.56;66.17
64158;BME280;50449;51.528;5.076;2022-10-16T08:17:18;101318.00;;;14.56;66.21
64158;BME280;50449;51.528;5.076;2022-10-16T08:19:45;101318.81;;;14.56;66.11
64158;BME280;50449;51.528;5.076;2022-10-16T08:22:11;101308.78;;;14.57;66.13
64158;BME280;50449;51.528;5.076;2022-10-16T08:24:36;101308.78;;;14.57;66.12
64158;BME280;50449;51.528;5.076;2022-10-16T08:27:02;101312.31;;;14.57;65.90
64158;BME280;50449;51.528;5.076;2022-10-16T08:29:28;101309.59;;;14.57;66.10
64158;BME280;50449;51.528;5.076;2022-10-16T08:31:53;101318.81;;;14.56;66.05
64158;BME280;50449;51.528;5.076;2022-10-16T08:34:18;101323.19;;;14.57;66.40
64158;BME280;50449;51.528;5.076;2022-10-16T08:36:44;101324.25;;;14.56;66.27
64158;BME280;50449;51.528;5.076;2022-10-16T08:39:09;101325.09;;;14.57;66.36
64158;BME280;50449;51.528;5.076;2022-10-16T08:44:27;101337.59;;;14.58;66.46
64158;BME280;50449;51.528;5.076;2022-10-16T08:47:18;101344.13;;;14.57;66.75
64158;BME280;50449;51.528;5.076;2022-10-16T08:50:00;101340.31;;;14.58;66.64
64158;BME280;50449;51.528;5.076;2022-10-16T08:52:33;101335.69;;;14.58;66.42
64158;BME280;50449;51.528;5.076;2022-10-16T08:55:01;101343.03;;;14.58;66.54
64158;BME280;50449;51.528;5.076;2022-10-16T08:57:27;101340.31;;;14.58;66.62
64158;BME280;50449;51.528;5.076;2022-10-16T08:59:53;101352.00;;;14.58;66.57
64158;BME280;50449;51.528;5.076;2022-10-16T09:02:35;101350.09;;;14.59;66.39
64158;BME280;50449;51.528;5.076;2022-10-16T09:10:57;101360.75;;;14.60;66.59
64158;BME280;50449;51.528;5.076;2022-10-16T09:13:35;101364.03;;;14.62;66.50
64158;BME280;50449;51.528;5.076;2022-10-16T09:16:22;101364.84;;;14.63;66.54
64158;BME280;50449;51.528;5.076;2022-10-16T09:23:54;101370.84;;;14.65;66.17
64158;BME280;50449;51.528;5.076;2022-10-16T09:26:22;101370.84;;;14.65;66.43
64158;BME280;50449;51.528;5.076;2022-10-16T09:28:48;101369.78;;;14.66;66.39
64158;BME280;50449;51.528;5.076;2022-10-16T09:31:18;101374.97;;;14.67;66.59
64158;BME280;50449;51.528;5.076;2022-10-16T09:33:47;101385.56;;;14.69;66.74
64158;BME280;50449;51.528;5.076;2022-10-16T09:36:14;101383.69;;;14.69;66.66
64158;BME280;50449;51.528;5.076;2022-10-16T09:38:40;101376.06;;;14.71;66.87
64158;BME280;50449;51.528;5.076;2022-10-16T09:41:23;101380.47;;;14.73;67.21
64158;BME280;50449;51.528;5.076;2022-10-16T09:44:00;101383.19;;;14.73;67.18
64158;BME280;50449;51.528;5.076;2022-10-16T09:46:28;101385.66;;;14.74;67.04
64158;BME280;50449;51.528;5.076;2022-10-16T09:49:05;101386.19;;;14.76;67.28
64158;BME280;50449;51.528;5.076;2022-10-16T09:51:33;101383.22;;;14.78;66.90
64158;BME280;50449;51.528;5.076;2022-10-16T09:56:36;101384.88;;;14.79;67.12
64158;BME280;50449;51.528;5.076;2022-10-16T09:59:19;101383.81;;;14.80;67.11
64158;BME280;50449;51.528;5.076;2022-10-16T10:01:50;101386.53;;;14.80;66.86
64158;BME280;50449;51.528;5.076;2022-10-16T10:04:17;101388.72;;;14.83;67.26
64158;BME280;50449;51.528;5.076;2022-10-16T10:06:46;101382.19;;;14.84;67.19
64158;BME280;50449;51.528;5.076;2022-10-16T10:17:18;101395.31;;;14.87;67.32
64158;BME280;50449;51.528;5.076;2022-10-16T10:19:59;101400.22;;;14.90;67.38
64158;BME280;50449;51.528;5.076;2022-10-16T10:22:42;101408.41;;;14.90;67.02
64158;BME280;50449;51.528;5.076;2022-10-16T10:30:27;101418.75;;;14.93;67.08
64158;BME280;50449;51.528;5.076;2022-10-16T10:41:32;101418.97;;;15.13;67.07
64158;BME280;50449;51.528;5.076;2022-10-16T10:46:51;101429.34;;;15.17;67.02
64158;BME280;50449;51.528;5.076;2022-10-16T10:57:41;101429.09;;;15.18;66.89
64158;BME280;50449;51.528;5.076;2022-10-16T11:09:06;101435.69;;;15.22;66.45
64158;BME280;50449;51.528;5.076;2022-10-16T11:11:44;101432.69;;;15.24;66.55
64158;BME280;50449;51.528;5.076;2022-10-16T11:16:44;101445.53;;;15.28;66.26
64158;BME280;50449;51.528;5.076;2022-10-16T11:22:15;101436.84;;;15.31;66.67
64158;BME280;50449;51.528;5.076;2022-10-16T11:25:21;101438.22;;;15.34;66.21
64158;BME280;50449;51.528;5.076;2022-10-16T11:30:22;101443.16;;;15.37;66.08
64158;BME280;50449;51.528;5.076;2022-10-16T11:33:00;101441.56;;;15.41;66.00
64158;BME280;50449;51.528;5.076;2022-10-16T11:35:39;101454.66;;;15.44;66.06
64158;BME280;50449;51.528;5.076;2022-10-16T11:38:12;101451.44;;;15.47;66.14
64158;BME280;50449;51.528;5.076;2022-10-16T11:40:42;101447.63;;;15.48;65.76
64158;BME280;50449;51.528;5.076;2022-10-16T11:43:15;101448.19;;;15.50;66.19
64158;BME280;50449;51.528;5.076;2022-10-16T11:45:45;101450.63;;;15.52;66.12
64158;BME280;50449;51.528;5.076;2022-10-16T11:50:54;101455.31;;;15.56;65.97
64158;BME280;50449;51.528;5.076;2022-10-16T11:56:13;101457.78;;;15.58;66.01
64158;BME280;50449;51.528;5.076;2022-10-16T12:01:42;101450.72;;;15.62;65.75
64158;BME280;50449;51.528;5.076;2022-10-16T12:04:49;101452.09;;;15.65;65.90
64158;BME280;50449;51.528;5.076;2022-10-16T12:07:21;101460.03;;;15.66;66.09
64158;BME280;50449;51.528;5.076;2022-10-16T12:09:48;101461.41;;;15.69;65.73
64158;BME280;50449;51.528;5.076;2022-10-16T12:17:35;101456.03;;;15.74;65.45
64158;BME280;50449;51.528;5.076;2022-10-16T12:20:29;101447.34;;;15.77;65.36
64158;BME280;50449;51.528;5.076;2022-10-16T12:25:24;101455.84;;;15.81;65.19
64158;BME280;50449;51.528;5.076;2022-10-16T12:28:25;101455.31;;;15.84;65.23
64158;BME280;50449;51.528;5.076;2022-10-16T12:31:00;101461.31;;;15.86;64.85
64158;BME280;50449;51.528;5.076;2022-10-16T12:33:30;101459.16;;;15.88;64.90
64158;BME280;50449;51.528;5.076;2022-10-16T12:35:59;101456.16;;;15.89;65.23
64158;BME280;50449;51.528;5.076;2022-10-16T12:41:02;101459.75;;;15.95;64.84
64158;BME280;50449;51.528;5.076;2022-10-16T12:43:34;101457.56;;;15.97;64.78
64158;BME280;50449;51.528;5.076;2022-10-16T12:46:05;101458.16;;;15.99;64.44
64158;BME280;50449;51.528;5.076;2022-10-16T12:48:31;101463.34;;;16.00;64.42
64158;BME280;50449;51.528;5.076;2022-10-16T12:50:57;101459.53;;;16.01;64.29
64158;BME280;50449;51.528;5.076;2022-10-16T12:53:24;101461.72;;;16.05;64.33
64158;BME280;50449;51.528;5.076;2022-10-16T12:56:02;101444.31;;;16.06;64.45
64158;BME280;50449;51.528;5.076;2022-10-16T13:01:48;101451.69;;;16.10;63.69
64158;BME280;50449;51.528;5.076;2022-10-16T13:04:40;101452.50;;;16.11;64.21
64158;BME280;50449;51.528;5.076;2022-10-16T13:10:17;101462.88;;;16.14;63.90
64158;BME280;50449;51.528;5.076;2022-10-16T13:15:57;101456.91;;;16.17;63.43
64158;BME280;50449;51.528;5.076;2022-10-16T13:29:41;101475.78;;;16.29;63.17
64158;BME280;50449;51.528;5.076;2022-10-16T13:32:09;101483.69;;;16.30;62.96
64158;BME280;50449;51.528;5.076;2022-10-16T13:34:47;101474.44;;;16.31;63.10
64158;BME280;50449;51.528;5.076;2022-10-16T13:37:19;101470.38;;;16.34;62.79
64158;BME280;50449;51.528;5.076;2022-10-16T13:39:45;101479.13;;;16.36;62.95
64158;BME280;50449;51.528;5.076;2022-10-16T13:42:29;101479.69;;;16.38;62.69
64158;BME280;50449;51.528;5.076;2022-10-16T13:44:56;101478.34;;;16.40;62.70
64158;BME280;50449;51.528;5.076;2022-10-16T13:47:24;101477.25;;;16.41;62.52
64158;BME280;50449;51.528;5.076;2022-10-16T13:50:05;101473.97;;;16.44;62.58
64158;BME280;50449;51.528;5.076;2022-10-16T13:52:31;101472.06;;;16.45;62.84
64158;BME280;50449;51.528;5.076;2022-10-16T13:54:57;101469.91;;;16.47;62.58
64158;BME280;50449;51.528;5.076;2022-10-16T13:57:24;101478.63;;;16.49;62.58
64158;BME280;50449;51.528;5.076;2022-10-16T13:59:50;101480.28;;;16.50;62.73
64158;BME280;50449;51.528;5.076;2022-10-16T14:02:26;101469.91;;;16.52;62.27
64158;BME280;50449;51.528;5.076;2022-10-16T14:04:53;101475.94;;;16.54;62.62
64158;BME280;50449;51.528;5.076;2022-10-16T14:07:28;101475.69;;;16.56;62.15
64158;BME280;50449;51.528;5.076;2022-10-16T14:09:54;101475.41;;;16.57;62.27
64158;BME280;50449;51.528;5.076;2022-10-16T14:12:21;101477.88;;;16.59;62.32
64158;BME280;50449;51.528;5.076;2022-10-16T14:14:50;101467.53;;;16.61;62.12
64158;BME280;50449;51.528;5.076;2022-10-16T14:17:26;101469.97;;;16.62;62.09
64158;BME280;50449;51.528;5.076;2022-10-16T14:19:55;101475.19;;;16.64;62.05
64158;BME280;50449;51.528;5.076;2022-10-16T14:22:36;101483.06;;;16.65;62.01
64158;BME280;50449;51.528;5.076;2022-10-16T14:25:24;101478.47;;;16.66;62.35
64158;BME280;50449;51.528;5.076;2022-10-16T14:28:01;101479.84;;;16.69;62.14
64158;BME280;50449;51.528;5.076;2022-10-16T14:30:28;101467.00;;;16.69;62.31
64158;BME280;50449;51.528;5.076;2022-10-16T14:33:02;101462.13;;;16.71;62.11
64158;BME280;50449;51.528;5.076;2022-10-16T14:35:29;101470.88;;;16.73;62.45
64158;BME280;50449;51.528;5.076;2022-10-16T14:37:56;101471.41;;;16.75;62.30
64158;BME280;50449;51.528;5.076;2022-10-16T14:40:28;101469.50;;;16.76;62.61
64158;BME280;50449;51.528;5.076;2022-10-16T14:42:54;101471.97;;;16.77;62.20
64158;BME280;50449;51.528;5.076;2022-10-16T14:45:26;101472.28;;;16.81;62.80
64158;BME280;50449;51.528;5.076;2022-10-16T14:47:54;101469.56;;;16.81;62.75
64158;BME280;50449;51.528;5.076;2022-10-16T14:50:21;101458.38;;;16.82;62.48
64158;BME280;50449;51.528;5.076;2022-10-16T14:52:47;101463.56;;;16.84;62.68
64158;BME280;50449;51.528;5.076;2022-10-16T14:55:12;101467.91;;;16.85;62.67